sensor_id;sensor_type;location;lat;lon;timestamp;P1;durP1;ratioP1;P2;durP2;ratioP2
74465;SDS011;62916;50.044;15.938;2022-11-06T00:00:41;3.30;;;3.00;;
74465;SDS011;62916;50.044;15.938;2022-11-06T00:03:12;3.40;;;2.70;;
74465;SDS011;62916;50.044;15.938;2022-11-06T00:05:42;3.20;;;2.90;;
74465;SDS011;62916;50.044;15.938;2022-11-06T00:08:32;4.80;;;3.10;;
74465;SDS011;62916;50.044;15.938;2022-11-06T00:11:11;3.90;;;2.90;;
74465;SDS011;62916;50.044;15.938;2022-11-06T00:13:43;3.40;;;2.30;;
74465;SDS011;62916;50.044;15.938;2022-11-06T00:16:16;2.70;;;2.50;;
74465;SDS011;62916;50.044;15.938;2022-11-06T00:18:47;4.50;;;2.70;;
74465;SDS011;62916;50.044;15.938;2022-11-06T00:21:19;3.30;;;3.00;;
74465;SDS011;62916;50.044;15.938;2022-11-06T00:23:52;3.30;;;2.80;;
74465;SDS011;62916;50.044;15.938;2022-11-06T00:26:24;3.10;;;2.70;;
74465;SDS011;62916;50.044;15.938;2022-11-06T00:28:57;4.30;;;2.90;;
74465;SDS011;62916;50.044;15.938;2022-11-06T00:31:28;3.60;;;2.70;;
74465;SDS011;62916;50.044;15.938;2022-11-06T00:34:00;3.30;;;3.00;;
74465;SDS011;62916;50.044;15.938;2022-11-06T00:36:33;3.50;;;2.90;;
74465;SDS011;62916;50.044;15.938;2022-11-06T00:39:04;3.30;;;3.00;;
74465;SDS011;62916;50.044;15.938;2022-11-06T00:41:35;4.30;;;2.90;;
74465;SDS011;62916;50.044;15.938;2022-11-06T00:44:08;3.50;;;3.00;;
74465;SDS011;62916;50.044;15.938;2022-11-06T00:46:38;3.70;;;2.90;;
74465;SDS011;62916;50.044;15.938;2022-11-06T00:49:09;3.80;;;3.20;;
74465;SDS011;62916;50.044;15.938;2022-11-06T00:51:40;3.30;;;2.70;;
74465;SDS011;62916;50.044;15.938;2022-11-06T00:54:11;3.60;;;3.10;;
74465;SDS011;62916;50.044;15.938;2022-11-06T00:56:42;3.30;;;3.00;;
74465;SDS011;62916;50.044;15.938;2022-11-06T00:59:13;2.90;;;2.70;;
74465;SDS011;62916;50.044;15.938;2022-11-06T01:01:44;3.30;;;2.80;;
74465;SDS011;62916;50.044;15.938;2022-11-06T01:04:15;3.10;;;2.80;;
74465;SDS011;62916;50.044;15.938;2022-11-06T01:06:48;3.70;;;3.00;;
74465;SDS011;62916;50.044;15.938;2022-11-06T01:09:21;3.80;;;3.20;;
74465;SDS011;62916;50.044;15.938;2022-11-06T01:11:54;3.60;;;3.30;;
74465;SDS011;62916;50.044;15.938;2022-11-06T01:14:41;3.50;;;3.10;;
74465;SDS011;62916;50.044;15.938;2022-11-06T01:17:12;3.60;;;2.60;;
74465;SDS011;62916;50.044;15.938;2022-11-06T01:19:43;4.40;;;3.10;;
74465;SDS011;62916;50.044;15.938;2022-11-06T01:22:14;2.90;;;2.70;;
74465;SDS011;62916;50.044;15.938;2022-11-06T01:24:45;3.80;;;2.90;;
74465;SDS011;62916;50.044;15.938;2022-11-06T01:27:16;3.70;;;2.90;;
74465;SDS011;62916;50.044;15.938;2022-11-06T01:29:54;3.60;;;3.00;;
74465;SDS011;62916;50.044;15.938;2022-11-06T01:32:24;3.70;;;3.20;;
74465;SDS011;62916;50.044;15.938;2022-11-06T01:34:55;3.20;;;2.90;;
74465;SDS011;62916;50.044;15.938;2022-11-06T01:37:26;3.80;;;3.00;;
74465;SDS011;62916;50.044;15.938;2022-11-06T01:39:57;3.10;;;2.80;;
74465;SDS011;62916;50.044;15.938;2022-11-06T01:42:27;3.30;;;3.00;;
74465;SDS011;62916;50.044;15.938;2022-11-06T01:48:02;4.30;;;3.00;;
74465;SDS011;62916;50.044;15.938;2022-11-06T01:50:33;3.50;;;2.90;;
74465;SDS011;62916;50.044;15.938;2022-11-06T01:53:05;3.30;;;2.80;;
74465;SDS011;62916;50.044;15.938;2022-11-06T01:55:37;3.30;;;3.00;;
74465;SDS011;62916;50.044;15.938;2022-11-06T01:58:22;3.20;;;2.90;;
74465;SDS011;62916;50.044;15.938;2022-11-06T02:00:57;3.50;;;3.20;;
74465;SDS011;62916;50.044;15.938;2022-11-06T02:03:29;3.40;;;3.10;;
74465;SDS011;62916;50.044;15.938;2022-11-06T02:06:00;3.40;;;3.00;;
74465;SDS011;62916;50.044;15.938;2022-11-06T02:08:32;3.50;;;3.20;;
74465;SDS011;62916;50.044;15.938;2022-11-06T02:11:03;3.20;;;2.90;;
74465;SDS011;62916;50.044;15.938;2022-11-06T02:13:36;3.50;;;3.00;;
74465;SDS011;62916;50.044;15.938;2022-11-06T02:16:13;2.90;;;2.70;;
74465;SDS011;62916;50.044;15.938;2022-11-06T02:18:52;3.70;;;2.80;;
74465;SDS011;62916;50.044;15.938;2022-11-06T02:24:45;3.60;;;2.90;;
74465;SDS011;62916;50.044;15.938;2022-11-06T02:27:24;3.10;;;2.70;;
74465;SDS011;62916;50.044;15.938;2022-11-06T02:32:31;2.90;;;2.50;;
74465;SDS011;62916;50.044;15.938;2022-11-06T02:35:14;3.50;;;3.10;;
74465;SDS011;62916;50.044;15.938;2022-11-06T02:37:48;3.20;;;2.60;;
74465;SDS011;62916;50.044;15.938;2022-11-06T02:40:23;3.90;;;3.50;;
74465;SDS011;62916;50.044;15.938;2022-11-06T02:43:01;3.70;;;3.20;;
74465;SDS011;62916;50.044;15.938;2022-11-06T02:45:38;3.20;;;2.90;;
74465;SDS011;62916;50.044;15.938;2022-11-06T02:48:13;3.20;;;2.90;;
74465;SDS011;62916;50.044;15.938;2022-11-06T02:50:52;3.20;;;2.80;;
74465;SDS011;62916;50.044;15.938;2022-11-06T02:53:25;3.20;;;2.90;;
74465;SDS011;62916;50.044;15.938;2022-11-06T02:55:59;3.50;;;3.10;;
74465;SDS011;62916;50.044;15.938;2022-11-06T02:58:36;3.20;;;2.90;;
74465;SDS011;62916;50.044;15.938;2022-11-06T03:01:16;3.80;;;3.30;;
74465;SDS011;62916;50.044;15.938;2022-11-06T03:03:53;3.40;;;3.10;;
74465;SDS011;62916;50.044;15.938;2022-11-06T03:06:28;3.70;;;3.10;;
74465;SDS011;62916;50.044;15.938;2022-11-06T03:09:04;3.40;;;3.10;;
74465;SDS011;62916;50.044;15.938;2022-11-06T03:11:38;2.90;;;2.60;;
74465;SDS011;62916;50.044;15.938;2022-11-06T03:14:10;3.30;;;3.00;;
74465;SDS011;62916;50.044;15.938;2022-11-06T03:16:49;3.80;;;3.00;;
74465;SDS011;62916;50.044;15.938;2022-11-06T03:19:25;3.30;;;2.80;;
74465;SDS011;62916;50.044;15.938;2022-11-06T03:22:01;3.30;;;3.00;;
74465;SDS011;62916;50.044;15.938;2022-11-06T03:24:38;3.60;;;3.30;;
74465;SDS011;62916;50.044;15.938;2022-11-06T03:27:15;3.30;;;2.80;;
74465;SDS011;62916;50.044;15.938;2022-11-06T03:29:50;3.70;;;2.60;;
74465;SDS011;62916;50.044;15.938;2022-11-06T03:32:32;3.40;;;2.90;;
74465;SDS011;62916;50.044;15.938;2022-11-06T03:35:08;3.20;;;2.90;;
74465;SDS011;62916;50.044;15.938;2022-11-06T03:37:43;3.70;;;3.10;;
74465;SDS011;62916;50.044;15.938;2022-11-06T03:40:19;3.70;;;3.10;;
74465;SDS011;62916;50.044;15.938;2022-11-06T03:42:55;3.00;;;2.70;;
74465;SDS011;62916;50.044;15.938;2022-11-06T03:45:31;3.40;;;3.10;;
74465;SDS011;62916;50.044;15.938;2022-11-06T03:48:06;3.40;;;3.10;;
74465;SDS011;62916;50.044;15.938;2022-11-06T03:50:43;3.00;;;2.70;;
74465;SDS011;62916;50.044;15.938;2022-11-06T03:53:23;3.00;;;2.70;;
74465;SDS011;62916;50.044;15.938;2022-11-06T03:55:58;3.60;;;2.80;;
74465;SDS011;62916;50.044;15.938;2022-11-06T03:58:37;3.70;;;3.10;;
74465;SDS011;62916;50.044;15.938;2022-11-06T04:01:11;3.30;;;2.80;;
74465;SDS011;62916;50.044;15.938;2022-11-06T04:03:46;3.40;;;3.10;;
74465;SDS011;62916;50.044;15.938;2022-11-06T04:06:22;3.50;;;3.00;;
74465;SDS011;62916;50.044;15.938;2022-11-06T04:08:59;3.50;;;3.10;;
74465;SDS011;62916;50.044;15.938;2022-11-06T04:11:50;3.10;;;2.80;;
74465;SDS011;62916;50.044;15.938;2022-11-06T04:14:41;4.30;;;3.00;;
74465;SDS011;62916;50.044;15.938;2022-11-06T04:17:14;3.30;;;3.00;;
74465;SDS011;62916;50.044;15.938;2022-11-06T04:19:48;2.90;;;2.70;;
74465;SDS011;62916;50.044;15.938;2022-11-06T04:22:28;3.60;;;3.00;;
74465;SDS011;62916;50.044;15.938;2022-11-06T04:25:11;3.40;;;3.00;;
74465;SDS011;62916;50.044;15.938;2022-11-06T04:28:11;2.90;;;2.60;;
74465;SDS011;62916;50.044;15.938;2022-11-06T04:30:54;3.40;;;2.90;;
74465;SDS011;62916;50.044;15.938;2022-11-06T04:33:36;3.80;;;2.80;;
74465;SDS011;62916;50.044;15.938;2022-11-06T04:36:16;3.70;;;3.20;;
74465;SDS011;62916;50.044;15.938;2022-11-06T04:38:52;3.40;;;2.90;;
74465;SDS011;62916;50.044;15.938;2022-11-06T04:41:31;3.20;;;2.90;;
74465;SDS011;62916;50.044;15.938;2022-11-06T04:44:08;3.90;;;2.90;;
74465;SDS011;62916;50.044;15.938;2022-11-06T04:46:44;2.90;;;2.60;;
74465;SDS011;62916;50.044;15.938;2022-11-06T04:49:20;3.10;;;2.70;;
74465;SDS011;62916;50.044;15.938;2022-11-06T04:51:52;3.70;;;2.80;;
74465;SDS011;62916;50.044;15.938;2022-11-06T04:54:24;3.30;;;2.90;;
74465;SDS011;62916;50.044;15.938;2022-11-06T04:56:57;3.00;;;2.70;;
74465;SDS011;62916;50.044;15.938;2022-11-06T04:59:30;3.50;;;2.40;;
74465;SDS011;62916;50.044;15.938;2022-11-06T05:02:04;4.00;;;2.60;;
74465;SDS011;62916;50.044;15.938;2022-11-06T05:04:35;3.30;;;3.00;;
74465;SDS011;62916;50.044;15.938;2022-11-06T05:07:06;3.40;;;3.10;;
74465;SDS011;62916;50.044;15.938;2022-11-06T05:09:37;3.30;;;2.90;;
74465;SDS011;62916;50.044;15.938;2022-11-06T05:12:08;3.30;;;3.00;;
74465;SDS011;62916;50.044;15.938;2022-11-06T05:14:38;3.90;;;2.90;;
74465;SDS011;62916;50.044;15.938;2022-11-06T05:17:09;3.00;;;2.70;;
74465;SDS011;62916;50.044;15.938;2022-11-06T05:19:40;3.40;;;3.10;;
74465;SDS011;62916;50.044;15.938;2022-11-06T05:22:11;3.50;;;3.00;;
74465;SDS011;62916;50.044;15.938;2022-11-06T05:25:08;3.10;;;2.80;;
74465;SDS011;62916;50.044;15.938;2022-11-06T05:27:39;3.30;;;2.30;;
74465;SDS011;62916;50.044;15.938;2022-11-06T05:30:10;3.20;;;2.70;;
74465;SDS011;62916;50.044;15.938;2022-11-06T05:32:42;3.40;;;2.90;;
74465;SDS011;62916;50.044;15.938;2022-11-06T05:35:12;4.00;;;3.00;;
74465;SDS011;62916;50.044;15.938;2022-11-06T05:37:43;3.60;;;3.30;;
74465;SDS011;62916;50.044;15.938;2022-11-06T05:40:14;3.70;;;3.10;;
74465;SDS011;62916;50.044;15.938;2022-11-06T05:42:45;3.30;;;2.90;;
74465;SDS011;62916;50.044;15.938;2022-11-06T05:45:15;3.20;;;2.90;;
74465;SDS011;62916;50.044;15.938;2022-11-06T05:47:46;3.00;;;2.50;;
74465;SDS011;62916;50.044;15.938;2022-11-06T05:50:17;3.60;;;3.10;;
74465;SDS011;62916;50.044;15.938;2022-11-06T05:52:48;4.20;;;3.00;;
74465;SDS011;62916;50.044;15.938;2022-11-06T05:55:19;4.00;;;2.90;;
74465;SDS011;62916;50.044;15.938;2022-11-06T05:57:50;3.20;;;2.70;;
74465;SDS011;62916;50.044;15.938;2022-11-06T06:00:21;3.20;;;2.80;;
74465;SDS011;62916;50.044;15.938;2022-11-06T06:02:52;3.30;;;2.80;;
74465;SDS011;62916;50.044;15.938;2022-11-06T06:05:23;4.60;;;3.30;;
74465;SDS011;62916;50.044;15.938;2022-11-06T06:07:53;2.90;;;2.60;;
74465;SDS011;62916;50.044;15.938;2022-11-06T06:10:24;3.40;;;3.10;;
74465;SDS011;62916;50.044;15.938;2022-11-06T06:12:55;4.10;;;3.20;;
74465;SDS011;62916;50.044;15.938;2022-11-06T06:15:26;3.40;;;2.90;;
74465;SDS011;62916;50.044;15.938;2022-11-06T06:17:57;3.10;;;2.70;;
74465;SDS011;62916;50.044;15.938;2022-11-06T06:20:28;3.30;;;3.00;;
74465;SDS011;62916;50.044;15.938;2022-11-06T06:22:59;3.70;;;2.70;;
74465;SDS011;62916;50.044;15.938;2022-11-06T06:25:30;3.60;;;3.10;;
74465;SDS011;62916;50.044;15.938;2022-11-06T06:28:01;4.00;;;3.30;;
74465;SDS011;62916;50.044;15.938;2022-11-06T06:30:32;3.30;;;3.00;;
74465;SDS011;62916;50.044;15.938;2022-11-06T06:33:04;4.00;;;3.00;;
74465;SDS011;62916;50.044;15.938;2022-11-06T06:35:35;3.20;;;2.90;;
74465;SDS011;62916;50.044;15.938;2022-11-06T06:38:06;4.40;;;3.90;;
74465;SDS011;62916;50.044;15.938;2022-11-06T06:40:37;3.70;;;3.30;;
74465;SDS011;62916;50.044;15.938;2022-11-06T06:43:08;3.10;;;2.90;;
74465;SDS011;62916;50.044;15.938;2022-11-06T06:45:39;4.00;;;3.10;;
74465;SDS011;62916;50.044;15.938;2022-11-06T06:48:09;3.70;;;3.40;;
74465;SDS011;62916;50.044;15.938;2022-11-06T06:50:41;5.40;;;3.80;;
74465;SDS011;62916;50.044;15.938;2022-11-06T06:53:12;3.60;;;3.30;;
74465;SDS011;62916;50.044;15.938;2022-11-06T06:55:43;3.40;;;2.90;;
74465;SDS011;62916;50.044;15.938;2022-11-06T06:58:13;4.60;;;3.10;;
74465;SDS011;62916;50.044;15.938;2022-11-06T07:00:45;3.70;;;3.10;;
74465;SDS011;62916;50.044;15.938;2022-11-06T07:03:16;4.70;;;3.10;;
74465;SDS011;62916;50.044;15.938;2022-11-06T07:05:46;3.70;;;2.90;;
74465;SDS011;62916;50.044;15.938;2022-11-06T07:08:17;3.70;;;3.20;;
74465;SDS011;62916;50.044;15.938;2022-11-06T07:10:48;4.40;;;3.30;;
74465;SDS011;62916;50.044;15.938;2022-11-06T07:13:19;4.00;;;3.30;;
74465;SDS011;62916;50.044;15.938;2022-11-06T07:15:50;4.00;;;2.70;;
74465;SDS011;62916;50.044;15.938;2022-11-06T07:18:23;3.40;;;2.90;;
74465;SDS011;62916;50.044;15.938;2022-11-06T07:20:56;4.60;;;3.00;;
74465;SDS011;62916;50.044;15.938;2022-11-06T07:23:27;3.60;;;2.90;;
74465;SDS011;62916;50.044;15.938;2022-11-06T07:25:58;3.80;;;3.40;;
74465;SDS011;62916;50.044;15.938;2022-11-06T07:28:29;4.20;;;3.00;;
74465;SDS011;62916;50.044;15.938;2022-11-06T07:31:01;2.90;;;2.60;;
74465;SDS011;62916;50.044;15.938;2022-11-06T07:33:33;2.70;;;2.50;;
74465;SDS011;62916;50.044;15.938;2022-11-06T07:36:05;3.40;;;2.60;;
74465;SDS011;62916;50.044;15.938;2022-11-06T07:38:38;3.10;;;2.80;;
74465;SDS011;62916;50.044;15.938;2022-11-06T07:41:10;3.00;;;2.70;;
74465;SDS011;62916;50.044;15.938;2022-11-06T07:43:43;3.60;;;3.10;;
74465;SDS011;62916;50.044;15.938;2022-11-06T07:46:17;2.90;;;2.40;;
74465;SDS011;62916;50.044;15.938;2022-11-06T07:48:47;4.00;;;2.70;;
74465;SDS011;62916;50.044;15.938;2022-11-06T07:51:19;3.00;;;2.70;;
74465;SDS011;62916;50.044;15.938;2022-11-06T07:53:50;4.00;;;3.00;;
74465;SDS011;62916;50.044;15.938;2022-11-06T07:56:21;4.00;;;3.20;;
74465;SDS011;62916;50.044;15.938;2022-11-06T07:58:52;4.30;;;2.70;;
74465;SDS011;62916;50.044;15.938;2022-11-06T08:01:22;6.20;;;3.60;;
74465;SDS011;62916;50.044;15.938;2022-11-06T08:03:53;5.20;;;3.00;;
74465;SDS011;62916;50.044;15.938;2022-11-06T08:06:24;5.00;;;3.20;;
74465;SDS011;62916;50.044;15.938;2022-11-06T08:08:55;4.10;;;3.00;;
74465;SDS011;62916;50.044;15.938;2022-11-06T08:11:26;4.40;;;2.70;;
74465;SDS011;62916;50.044;15.938;2022-11-06T08:13:57;5.00;;;2.80;;
74465;SDS011;62916;50.044;15.938;2022-11-06T08:16:29;3.20;;;2.80;;
74465;SDS011;62916;50.044;15.938;2022-11-06T08:19:00;3.70;;;3.00;;
74465;SDS011;62916;50.044;15.938;2022-11-06T08:21:31;5.30;;;3.00;;
74465;SDS011;62916;50.044;15.938;2022-11-06T08:24:03;4.20;;;3.10;;
74465;SDS011;62916;50.044;15.938;2022-11-06T08:26:34;3.70;;;3.20;;
74465;SDS011;62916;50.044;15.938;2022-11-06T08:29:05;3.70;;;3.20;;
74465;SDS011;62916;50.044;15.938;2022-11-06T08:31:36;3.80;;;2.50;;
74465;SDS011;62916;50.044;15.938;2022-11-06T08:34:07;2.70;;;2.40;;
74465;SDS011;62916;50.044;15.938;2022-11-06T08:36:40;3.40;;;3.10;;
74465;SDS011;62916;50.044;15.938;2022-11-06T08:39:16;4.00;;;3.10;;
74465;SDS011;62916;50.044;15.938;2022-11-06T08:41:47;2.70;;;2.40;;
74465;SDS011;62916;50.044;15.938;2022-11-06T08:44:18;3.50;;;3.00;;
74465;SDS011;62916;50.044;15.938;2022-11-06T08:46:49;3.50;;;2.90;;
74465;SDS011;62916;50.044;15.938;2022-11-06T08:49:19;4.10;;;2.60;;
74465;SDS011;62916;50.044;15.938;2022-11-06T08:51:50;5.90;;;3.40;;
74465;SDS011;62916;50.044;15.938;2022-11-06T08:54:21;3.80;;;2.90;;
74465;SDS011;62916;50.044;15.938;2022-11-06T08:56:52;3.50;;;2.80;;
74465;SDS011;62916;50.044;15.938;2022-11-06T08:59:24;3.80;;;3.50;;
74465;SDS011;62916;50.044;15.938;2022-11-06T09:01:56;4.30;;;2.90;;
74465;SDS011;62916;50.044;15.938;2022-11-06T09:04:28;3.10;;;2.70;;
74465;SDS011;62916;50.044;15.938;2022-11-06T09:07:01;3.60;;;2.90;;
74465;SDS011;62916;50.044;15.938;2022-11-06T09:09:32;3.60;;;2.80;;
74465;SDS011;62916;50.044;15.938;2022-11-06T09:12:03;3.80;;;3.00;;
74465;SDS011;62916;50.044;15.938;2022-11-06T09:14:35;2.80;;;2.60;;
74465;SDS011;62916;50.044;15.938;2022-11-06T09:17:06;4.40;;;3.40;;
74465;SDS011;62916;50.044;15.938;2022-11-06T09:19:37;3.30;;;2.70;;
74465;SDS011;62916;50.044;15.938;2022-11-06T09:22:08;3.50;;;2.60;;
74465;SDS011;62916;50.044;15.938;2022-11-06T09:24:39;4.50;;;3.40;;
74465;SDS011;62916;50.044;15.938;2022-11-06T09:27:30;4.70;;;4.30;;
74465;SDS011;62916;50.044;15.938;2022-11-06T09:30:09;4.30;;;3.60;;
74465;SDS011;62916;50.044;15.938;2022-11-06T09:32:45;5.70;;;4.10;;
74465;SDS011;62916;50.044;15.938;2022-11-06T09:35:18;6.70;;;4.20;;
74465;SDS011;62916;50.044;15.938;2022-11-06T09:37:49;6.20;;;4.70;;
74465;SDS011;62916;50.044;15.938;2022-11-06T09:40:22;6.90;;;4.50;;
74465;SDS011;62916;50.044;15.938;2022-11-06T09:43:00;7.10;;;5.30;;
74465;SDS011;62916;50.044;15.938;2022-11-06T09:45:40;8.40;;;6.30;;
74465;SDS011;62916;50.044;15.938;2022-11-06T09:48:14;8.00;;;4.90;;
74465;SDS011;62916;50.044;15.938;2022-11-06T09:50:50;8.70;;;5.80;;
74465;SDS011;62916;50.044;15.938;2022-11-06T09:53:26;7.90;;;5.70;;
74465;SDS011;62916;50.044;15.938;2022-11-06T09:56:02;9.90;;;6.30;;
74465;SDS011;62916;50.044;15.938;2022-11-06T09:58:37;8.30;;;5.50;;
74465;SDS011;62916;50.044;15.938;2022-11-06T10:01:13;9.70;;;6.60;;
74465;SDS011;62916;50.044;15.938;2022-11-06T10:03:55;9.70;;;7.00;;
74465;SDS011;62916;50.044;15.938;2022-11-06T10:06:27;8.50;;;6.20;;
74465;SDS011;62916;50.044;15.938;2022-11-06T10:08:59;9.70;;;6.80;;
74465;SDS011;62916;50.044;15.938;2022-11-06T10:11:38;9.60;;;6.20;;
74465;SDS011;62916;50.044;15.938;2022-11-06T10:14:20;10.10;;;6.90;;
74465;SDS011;62916;50.044;15.938;2022-11-06T10:17:03;9.50;;;6.40;;
74465;SDS011;62916;50.044;15.938;2022-11-06T10:19:47;9.50;;;6.50;;
74465;SDS011;62916;50.044;15.938;2022-11-06T10:22:24;10.70;;;7.20;;
74465;SDS011;62916;50.044;15.938;2022-11-06T10:25:04;8.30;;;6.60;;
74465;SDS011;62916;50.044;15.938;2022-11-06T10:27:48;11.60;;;6.50;;
74465;SDS011;62916;50.044;15.938;2022-11-06T10:30:33;8.10;;;6.30;;
74465;SDS011;62916;50.044;15.938;2022-11-06T10:33:19;9.20;;;6.50;;
74465;SDS011;62916;50.044;15.938;2022-11-06T10:35:58;9.10;;;6.10;;
74465;SDS011;62916;50.044;15.938;2022-11-06T10:38:33;8.10;;;6.10;;
74465;SDS011;62916;50.044;15.938;2022-11-06T10:43:44;7.90;;;5.80;;
74465;SDS011;62916;50.044;15.938;2022-11-06T10:46:21;7.10;;;5.30;;
74465;SDS011;62916;50.044;15.938;2022-11-06T10:48:58;7.20;;;5.40;;
74465;SDS011;62916;50.044;15.938;2022-11-06T10:51:40;7.20;;;5.40;;
74465;SDS011;62916;50.044;15.938;2022-11-06T10:54:30;7.50;;;5.00;;
74465;SDS011;62916;50.044;15.938;2022-11-06T10:57:17;7.10;;;5.20;;
74465;SDS011;62916;50.044;15.938;2022-11-06T10:59:56;6.90;;;5.00;;
74465;SDS011;62916;50.044;15.938;2022-11-06T11:02:28;7.60;;;5.20;;
74465;SDS011;62916;50.044;15.938;2022-11-06T11:05:06;9.30;;;5.50;;
74465;SDS011;62916;50.044;15.938;2022-11-06T11:07:41;10.10;;;5.60;;
74465;SDS011;62916;50.044;15.938;2022-11-06T11:10:29;12.80;;;5.60;;
74465;SDS011;62916;50.044;15.938;2022-11-06T11:13:03;7.70;;;5.50;;
74465;SDS011;62916;50.044;15.938;2022-11-06T11:15:47;9.00;;;5.40;;
74465;SDS011;62916;50.044;15.938;2022-11-06T11:18:21;7.50;;;5.20;;
74465;SDS011;62916;50.044;15.938;2022-11-06T11:21:06;7.10;;;5.20;;
74465;SDS011;62916;50.044;15.938;2022-11-06T11:23:43;8.20;;;4.60;;
74465;SDS011;62916;50.044;15.938;2022-11-06T11:26:19;6.20;;;4.40;;
74465;SDS011;62916;50.044;15.938;2022-11-06T11:28:54;6.40;;;4.70;;
74465;SDS011;62916;50.044;15.938;2022-11-06T11:31:28;9.40;;;5.80;;
74465;SDS011;62916;50.044;15.938;2022-11-06T11:34:01;6.60;;;4.60;;
74465;SDS011;62916;50.044;15.938;2022-11-06T11:36:47;7.90;;;4.40;;
74465;SDS011;62916;50.044;15.938;2022-11-06T11:39:21;6.70;;;4.60;;
74465;SDS011;62916;50.044;15.938;2022-11-06T11:42:00;6.20;;;4.40;;
74465;SDS011;62916;50.044;15.938;2022-11-06T11:44:59;6.50;;;4.50;;
74465;SDS011;62916;50.044;15.938;2022-11-06T11:47:39;5.60;;;4.70;;
74465;SDS011;62916;50.044;15.938;2022-11-06T11:50:23;8.20;;;5.10;;
74465;SDS011;62916;50.044;15.938;2022-11-06T11:52:57;6.30;;;4.50;;
74465;SDS011;62916;50.044;15.938;2022-11-06T11:55:38;5.80;;;4.20;;
74465;SDS011;62916;50.044;15.938;2022-11-06T11:58:17;8.40;;;5.00;;
74465;SDS011;62916;50.044;15.938;2022-11-06T12:00:52;7.50;;;4.00;;
74465;SDS011;62916;50.044;15.938;2022-11-06T12:03:26;6.10;;;4.40;;
74465;SDS011;62916;50.044;15.938;2022-11-06T12:06:07;6.20;;;4.30;;
74465;SDS011;62916;50.044;15.938;2022-11-06T12:08:45;7.00;;;4.40;;
74465;SDS011;62916;50.044;15.938;2022-11-06T12:11:20;4.90;;;4.20;;
74465;SDS011;62916;50.044;15.938;2022-11-06T12:17:02;6.00;;;4.10;;
74465;SDS011;62916;50.044;15.938;2022-11-06T12:19:38;5.40;;;4.20;;
74465;SDS011;62916;50.044;15.938;2022-11-06T12:22:11;6.50;;;4.10;;
74465;SDS011;62916;50.044;15.938;2022-11-06T12:24:52;5.50;;;4.10;;
74465;SDS011;62916;50.044;15.938;2022-11-06T12:27:28;5.70;;;4.20;;
74465;SDS011;62916;50.044;15.938;2022-11-06T12:30:06;5.80;;;4.20;;
74465;SDS011;62916;50.044;15.938;2022-11-06T12:32:43;4.30;;;3.60;;
74465;SDS011;62916;50.044;15.938;2022-11-06T12:35:23;6.20;;;4.30;;
74465;SDS011;62916;50.044;15.938;2022-11-06T12:38:04;5.20;;;3.80;;
74465;SDS011;62916;50.044;15.938;2022-11-06T12:40:46;4.00;;;3.50;;
74465;SDS011;62916;50.044;15.938;2022-11-06T12:43:24;5.20;;;4.10;;
74465;SDS011;62916;50.044;15.938;2022-11-06T12:46:05;5.50;;;4.10;;
74465;SDS011;62916;50.044;15.938;2022-11-06T12:51:58;4.00;;;3.40;;
74465;SDS011;62916;50.044;15.938;2022-11-06T12:54:39;6.50;;;4.40;;
74465;SDS011;62916;50.044;15.938;2022-11-06T12:57:19;5.90;;;4.10;;
74465;SDS011;62916;50.044;15.938;2022-11-06T13:00:01;4.70;;;3.60;;
74465;SDS011;62916;50.044;15.938;2022-11-06T13:02:43;5.90;;;5.00;;
74465;SDS011;62916;50.044;15.938;2022-11-06T13:05:29;4.10;;;3.40;;
74465;SDS011;62916;50.044;15.938;2022-11-06T13:08:16;4.60;;;3.80;;
74465;SDS011;62916;50.044;15.938;2022-11-06T13:11:00;5.60;;;4.20;;
74465;SDS011;62916;50.044;15.938;2022-11-06T13:13:49;5.40;;;3.70;;
74465;SDS011;62916;50.044;15.938;2022-11-06T13:16:33;4.30;;;3.40;;
74465;SDS011;62916;50.044;15.938;2022-11-06T13:19:14;4.60;;;3.30;;
74465;SDS011;62916;50.044;15.938;2022-11-06T13:21:59;4.80;;;3.60;;
74465;SDS011;62916;50.044;15.938;2022-11-06T13:24:44;4.30;;;3.60;;
74465;SDS011;62916;50.044;15.938;2022-11-06T13:27:25;5.20;;;3.80;;
74465;SDS011;62916;50.044;15.938;2022-11-06T13:30:03;4.20;;;3.60;;
74465;SDS011;62916;50.044;15.938;2022-11-06T13:32:41;5.30;;;3.60;;
74465;SDS011;62916;50.044;15.938;2022-11-06T13:35:20;4.20;;;3.20;;
74465;SDS011;62916;50.044;15.938;2022-11-06T13:37:52;5.40;;;3.70;;
74465;SDS011;62916;50.044;15.938;2022-11-06T13:40:26;3.80;;;3.40;;
74465;SDS011;62916;50.044;15.938;2022-11-06T13:43:01;4.20;;;3.20;;
74465;SDS011;62916;50.044;15.938;2022-11-06T13:45:41;4.80;;;3.30;;
74465;SDS011;62916;50.044;15.938;2022-11-06T13:48:18;3.30;;;3.00;;
74465;SDS011;62916;50.044;15.938;2022-11-06T13:51:05;4.70;;;3.70;;
74465;SDS011;62916;50.044;15.938;2022-11-06T13:53:43;4.50;;;3.50;;
74465;SDS011;62916;50.044;15.938;2022-11-06T13:56:31;3.60;;;3.20;;
74465;SDS011;62916;50.044;15.938;2022-11-06T13:59:29;4.20;;;3.10;;
74465;SDS011;62916;50.044;15.938;2022-11-06T14:02:19;4.50;;;3.70;;
74465;SDS011;62916;50.044;15.938;2022-11-06T14:07:58;7.60;;;5.30;;
74465;SDS011;62916;50.044;15.938;2022-11-06T14:10:40;8.70;;;5.40;;
74465;SDS011;62916;50.044;15.938;2022-11-06T14:16:02;7.80;;;7.00;;
74465;SDS011;62916;50.044;15.938;2022-11-06T14:18:35;7.00;;;5.60;;
74465;SDS011;62916;50.044;15.938;2022-11-06T14:27:10;10.70;;;8.10;;
74465;SDS011;62916;50.044;15.938;2022-11-06T14:30:02;9.00;;;8.00;;
74465;SDS011;62916;50.044;15.938;2022-11-06T14:32:44;9.30;;;8.00;;
74465;SDS011;62916;50.044;15.938;2022-11-06T14:38:32;10.00;;;7.60;;
74465;SDS011;62916;50.044;15.938;2022-11-06T14:47:24;8.30;;;7.20;;
74465;SDS011;62916;50.044;15.938;2022-11-06T14:49:59;10.60;;;9.30;;
74465;SDS011;62916;50.044;15.938;2022-11-06T14:52:40;10.30;;;7.50;;
74465;SDS011;62916;50.044;15.938;2022-11-06T14:55:23;9.00;;;7.70;;
74465;SDS011;62916;50.044;15.938;2022-11-06T14:57:58;8.40;;;7.60;;
74465;SDS011;62916;50.044;15.938;2022-11-06T15:00:46;9.30;;;7.80;;
74465;SDS011;62916;50.044;15.938;2022-11-06T15:03:23;8.60;;;7.70;;
74465;SDS011;62916;50.044;15.938;2022-11-06T15:05:58;8.80;;;7.40;;
74465;SDS011;62916;50.044;15.938;2022-11-06T15:08:54;8.10;;;7.40;;
74465;SDS011;62916;50.044;15.938;2022-11-06T15:17:28;7.60;;;6.70;;
74465;SDS011;62916;50.044;15.938;2022-11-06T15:23:06;9.20;;;6.90;;
74465;SDS011;62916;50.044;15.938;2022-11-06T15:25:55;7.90;;;7.20;;
74465;SDS011;62916;50.044;15.938;2022-11-06T15:28:37;8.90;;;6.90;;
74465;SDS011;62916;50.044;15.938;2022-11-06T15:31:13;8.60;;;7.40;;
74465;SDS011;62916;50.044;15.938;2022-11-06T15:33:50;8.40;;;7.60;;
74465;SDS011;62916;50.044;15.938;2022-11-06T15:36:27;10.00;;;8.00;;
74465;SDS011;62916;50.044;15.938;2022-11-06T15:39:02;7.50;;;6.80;;
74465;SDS011;62916;50.044;15.938;2022-11-06T15:41:51;7.80;;;7.00;;
74465;SDS011;62916;50.044;15.938;2022-11-06T15:44:22;8.80;;;7.90;;
74465;SDS011;62916;50.044;15.938;2022-11-06T15:46:54;8.90;;;7.20;;
74465;SDS011;62916;50.044;15.938;2022-11-06T15:49:26;7.90;;;7.00;;
74465;SDS011;62916;50.044;15.938;2022-11-06T15:51:57;8.30;;;7.60;;
74465;SDS011;62916;50.044;15.938;2022-11-06T15:54:33;8.10;;;7.30;;
74465;SDS011;62916;50.044;15.938;2022-11-06T15:57:10;8.00;;;7.20;;
74465;SDS011;62916;50.044;15.938;2022-11-06T15:59:45;7.70;;;7.00;;
74465;SDS011;62916;50.044;15.938;2022-11-06T16:02:17;7.10;;;6.50;;
74465;SDS011;62916;50.044;15.938;2022-11-06T16:04:50;7.60;;;6.60;;
74465;SDS011;62916;50.044;15.938;2022-11-06T16:07:21;7.40;;;6.70;;
74465;SDS011;62916;50.044;15.938;2022-11-06T16:09:54;7.80;;;6.80;;